createdAt,value
2022-09-07T00:00:36.405Z,10.10
2022-09-07T00:01:34.198Z,8.89
2022-09-07T00:02:34.466Z,6.69
2022-09-07T00:03:34.709Z,4.59
2022-09-07T00:04:34.890Z,4.90
2022-09-07T00:05:35.043Z,4.30
2022-09-07T00:06:35.253Z,4.00
2022-09-07T00:07:35.468Z,4.59
2022-09-07T00:08:35.680Z,4.30
2022-09-07T00:09:35.893Z,4.59
2022-09-07T00:10:36.100Z,4.50
2022-09-07T00:11:36.311Z,4.50
2022-09-07T00:12:36.525Z,4.59
2022-09-07T00:13:36.737Z,4.80
2022-09-07T00:14:36.953Z,4.50
2022-09-07T00:15:37.156Z,4.50
2022-09-07T00:16:37.411Z,4.09
2022-09-07T00:17:37.572Z,5.00
2022-09-07T00:18:39.508Z,4.40
2022-09-07T00:19:37.997Z,4.59
2022-09-07T00:20:38.193Z,4.40
2022-09-07T00:21:38.400Z,4.30
2022-09-07T00:22:38.611Z,4.40
2022-09-07T00:23:38.818Z,4.59
2022-09-07T00:24:39.028Z,4.80
2022-09-07T00:25:39.239Z,4.90
2022-09-07T00:26:39.442Z,4.90
2022-09-07T00:27:39.652Z,5.90
2022-09-07T00:28:39.862Z,5.69
2022-09-07T00:29:40.074Z,5.69
2022-09-07T00:30:40.284Z,5.50
2022-09-07T00:31:40.556Z,7.09
2022-09-07T00:32:40.708Z,5.00
2022-09-07T00:33:40.930Z,5.00
2022-09-07T00:34:41.144Z,4.80
2022-09-07T00:35:41.362Z,4.69
2022-09-07T00:36:41.583Z,5.09
2022-09-07T00:37:41.793Z,4.80
2022-09-07T00:38:42.012Z,5.30
2022-09-07T00:39:42.267Z,5.09
2022-09-07T00:40:42.451Z,5.09
2022-09-07T00:41:42.679Z,5.19
2022-09-07T00:42:42.900Z,5.30
2022-09-07T00:43:43.120Z,5.40
2022-09-07T00:44:43.341Z,4.69
2022-09-07T00:45:43.564Z,4.90
2022-09-07T00:46:43.874Z,3.20
2022-09-07T00:47:44.011Z,4.00
2022-09-07T00:48:44.235Z,3.59
2022-09-07T00:49:44.458Z,3.70
2022-09-07T00:50:44.692Z,3.00
2022-09-07T00:51:44.917Z,2.70
2022-09-07T00:52:45.153Z,2.59
2022-09-07T00:53:45.392Z,2.70
2022-09-07T00:54:45.625Z,2.40
2022-09-07T00:55:45.861Z,2.09
2022-09-07T00:56:46.093Z,2.09
2022-09-07T00:57:46.326Z,2.09
2022-09-07T00:58:46.559Z,2.79
2022-09-07T00:59:46.792Z,2.29
2022-09-07T01:00:47.026Z,2.09
2022-09-07T01:01:47.393Z,2.09
2022-09-07T01:02:47.621Z,2.50
2022-09-07T01:03:47.722Z,2.20
2022-09-07T01:04:47.954Z,1.70
2022-09-07T01:05:48.189Z,1.79
2022-09-07T01:06:48.420Z,2.09
2022-09-07T01:07:48.653Z,1.70
2022-09-07T01:08:48.889Z,1.90
2022-09-07T01:09:49.130Z,2.00
2022-09-07T01:10:49.354Z,1.90
2022-09-07T01:11:49.585Z,2.20
2022-09-07T01:12:49.816Z,2.00
2022-09-07T01:13:50.045Z,2.50
2022-09-07T01:14:50.276Z,1.79
2022-09-07T01:15:50.548Z,1.90
2022-09-07T01:16:50.735Z,1.79
2022-09-07T01:17:50.959Z,1.79
2022-09-07T01:18:51.189Z,1.70
2022-09-07T01:19:51.420Z,1.90
2022-09-07T01:20:51.654Z,2.20
2022-09-07T01:21:51.893Z,1.79
2022-09-07T01:22:52.132Z,2.09
2022-09-07T01:23:52.364Z,1.60
2022-09-07T01:24:52.603Z,2.00
2022-09-07T01:25:52.838Z,1.79
2022-09-07T01:26:53.070Z,2.00
2022-09-07T01:27:53.300Z,1.70
2022-09-07T01:28:53.549Z,2.70
2022-09-07T01:29:53.770Z,2.50
2022-09-07T01:30:54.079Z,2.09
2022-09-07T01:31:54.245Z,2.09
2022-09-07T01:32:54.480Z,2.00
2022-09-07T01:33:54.721Z,2.09
2022-09-07T01:34:54.962Z,2.29
2022-09-07T01:35:55.207Z,2.50
2022-09-07T01:36:55.445Z,2.70
2022-09-07T01:37:57.120Z,3.20
2022-09-07T01:38:55.932Z,2.59
2022-09-07T01:39:56.252Z,3.29
2022-09-07T01:40:56.419Z,5.09
2022-09-07T01:41:56.662Z,3.00
2022-09-07T01:42:56.905Z,2.59
2022-09-07T01:43:57.154Z,3.09
2022-09-07T01:44:57.393Z,4.59
2022-09-07T01:45:57.675Z,3.50
2022-09-07T01:46:57.879Z,2.70
2022-09-07T01:47:58.120Z,3.00
2022-09-07T01:48:58.369Z,3.09
2022-09-07T01:49:58.616Z,3.29
2022-09-07T01:50:58.865Z,3.09
2022-09-07T01:51:59.115Z,3.50
2022-09-07T01:52:59.361Z,3.20
2022-09-07T01:53:59.609Z,3.00
2022-09-07T01:54:59.859Z,3.20
2022-09-07T01:56:00.108Z,3.50
2022-09-07T01:57:00.353Z,3.29
2022-09-07T01:58:00.604Z,3.59
2022-09-07T01:59:00.852Z,3.09
2022-09-07T02:00:01.102Z,3.09
2022-09-07T02:01:01.352Z,3.00
2022-09-07T02:02:01.716Z,2.90
2022-09-07T02:03:01.966Z,3.09
2022-09-07T02:04:02.104Z,3.09
2022-09-07T02:05:02.353Z,3.09
2022-09-07T02:06:02.601Z,3.09
2022-09-07T02:07:02.847Z,2.90
2022-09-07T02:08:03.096Z,2.79
2022-09-07T02:09:03.347Z,3.50
2022-09-07T02:10:03.600Z,3.90
2022-09-07T02:11:03.848Z,3.70
2022-09-07T02:12:04.103Z,3.90
2022-09-07T02:13:04.354Z,4.50
2022-09-07T02:14:04.616Z,4.00
2022-09-07T02:15:04.855Z,4.00
2022-09-07T02:16:05.144Z,4.00
2022-09-07T02:17:05.360Z,4.09
2022-09-07T02:18:05.618Z,4.00
2022-09-07T02:19:05.868Z,4.50
2022-09-07T02:20:06.122Z,4.50
2022-09-07T02:21:06.367Z,4.80
2022-09-07T02:22:06.617Z,5.09
2022-09-07T02:23:06.903Z,4.90
2022-09-07T02:24:07.121Z,5.09
2022-09-07T02:25:07.372Z,4.90
2022-09-07T02:26:07.622Z,5.59
2022-09-07T02:27:07.868Z,4.80
2022-09-07T02:28:08.112Z,4.69
2022-09-07T02:29:08.372Z,4.40
2022-09-07T02:30:08.607Z,4.50
2022-09-07T02:31:08.934Z,4.50
2022-09-07T02:32:09.104Z,5.40
2022-09-07T02:33:09.353Z,4.80
2022-09-07T02:34:09.593Z,4.69
2022-09-07T02:35:09.843Z,4.69
2022-09-07T02:36:10.110Z,4.80
2022-09-07T02:37:10.342Z,4.50
2022-09-07T02:38:10.592Z,4.19
2022-09-07T02:39:10.837Z,4.80
2022-09-07T02:40:11.142Z,5.19
2022-09-07T02:41:11.333Z,5.00
2022-09-07T02:42:11.578Z,5.00
2022-09-07T02:43:11.829Z,5.30
2022-09-07T02:44:12.075Z,5.09
2022-09-07T02:45:12.321Z,4.59
2022-09-07T02:46:12.624Z,4.50
2022-09-07T02:47:12.829Z,4.80
2022-09-07T02:48:13.073Z,4.90
2022-09-07T02:49:13.326Z,4.30
2022-09-07T02:50:13.576Z,5.19
2022-09-07T02:51:13.827Z,4.30
2022-09-07T02:52:14.071Z,3.70
2022-09-07T02:53:14.319Z,4.80
2022-09-07T02:54:14.575Z,5.00
2022-09-07T02:55:14.817Z,6.30
2022-09-07T02:56:15.070Z,5.69
2022-09-07T02:57:15.317Z,4.09
2022-09-07T02:58:15.568Z,2.90
2022-09-07T02:59:15.816Z,2.70
2022-09-07T03:00:16.065Z,2.59
2022-09-07T03:01:16.404Z,2.79
2022-09-07T03:02:16.615Z,3.20
2022-09-07T03:03:16.801Z,3.59
2022-09-07T03:04:17.050Z,4.00
2022-09-07T03:05:17.301Z,3.79
2022-09-07T03:06:17.551Z,4.00
2022-09-07T03:07:17.792Z,3.90
2022-09-07T03:08:18.046Z,4.00
2022-09-07T03:09:18.289Z,4.19
2022-09-07T03:10:18.538Z,4.40
2022-09-07T03:11:18.783Z,3.79
2022-09-07T03:12:19.028Z,4.00
2022-09-07T03:13:19.279Z,4.19
2022-09-07T03:14:19.530Z,3.59
2022-09-07T03:15:19.779Z,3.40
2022-09-07T03:16:20.077Z,3.79
2022-09-07T03:17:20.280Z,3.79
2022-09-07T03:18:20.526Z,4.00
2022-09-07T03:19:20.780Z,3.90
2022-09-07T03:20:21.028Z,4.00
2022-09-07T03:21:21.288Z,4.30
2022-09-07T03:22:21.529Z,4.40
2022-09-07T03:23:21.782Z,4.09
2022-09-07T03:24:22.030Z,4.40
2022-09-07T03:25:22.277Z,4.40
2022-09-07T03:26:22.530Z,4.19
2022-09-07T03:27:22.779Z,4.00
2022-09-07T03:28:23.032Z,4.19
2022-09-07T03:29:23.277Z,4.40
2022-09-07T03:30:23.523Z,4.19
2022-09-07T03:31:23.865Z,4.50
2022-09-07T03:32:24.022Z,4.50
2022-09-07T03:33:24.269Z,4.40
2022-09-07T03:34:24.517Z,4.90
2022-09-07T03:35:24.766Z,4.59
2022-09-07T03:36:25.012Z,4.59
2022-09-07T03:37:25.265Z,4.90
2022-09-07T03:38:25.517Z,4.40
2022-09-07T03:39:25.862Z,4.40
2022-09-07T03:40:26.033Z,4.90
2022-09-07T03:41:26.289Z,4.69
2022-09-07T03:42:26.546Z,4.50
2022-09-07T03:43:26.803Z,4.09
2022-09-07T03:44:27.056Z,4.50
2022-09-07T03:45:27.311Z,4.69
2022-09-07T03:46:27.605Z,4.69
2022-09-07T03:47:27.822Z,4.30
2022-09-07T03:48:28.078Z,4.30
2022-09-07T03:49:28.334Z,4.40
2022-09-07T03:50:28.591Z,4.30
2022-09-07T03:51:28.847Z,4.40
2022-09-07T03:52:29.104Z,4.80
2022-09-07T03:53:29.368Z,5.00
2022-09-07T03:54:29.625Z,4.90
2022-09-07T03:55:29.886Z,5.19
2022-09-07T03:56:30.144Z,5.00
2022-09-07T03:57:30.405Z,5.30
2022-09-07T03:58:30.818Z,5.90
2022-09-07T03:59:30.932Z,5.30
2022-09-07T04:00:31.194Z,5.09
2022-09-07T04:01:31.491Z,6.00
2022-09-07T04:02:31.793Z,5.50
2022-09-07T04:03:31.987Z,5.19
2022-09-07T04:04:32.248Z,5.40
2022-09-07T04:05:32.511Z,5.09
2022-09-07T04:06:32.779Z,5.19
2022-09-07T04:07:33.039Z,5.09
2022-09-07T04:08:33.306Z,5.59
2022-09-07T04:09:33.569Z,6.09
2022-09-07T04:10:33.835Z,6.50
2022-09-07T04:11:34.095Z,6.50
2022-09-07T04:12:34.363Z,7.19
2022-09-07T04:13:34.623Z,6.50
2022-09-07T04:14:34.879Z,6.19
2022-09-07T04:15:35.142Z,5.80
2022-09-07T04:16:35.456Z,6.50
2022-09-07T04:17:35.662Z,6.19
2022-09-07T04:18:35.921Z,6.00
2022-09-07T04:19:36.186Z,5.80
2022-09-07T04:20:36.449Z,6.30
2022-09-07T04:21:36.708Z,7.00
2022-09-07T04:22:36.964Z,7.90
2022-09-07T04:23:37.228Z,7.40
2022-09-07T04:24:37.488Z,7.69
2022-09-07T04:25:37.747Z,7.69
2022-09-07T04:26:38.003Z,8.30
2022-09-07T04:27:38.264Z,8.39
2022-09-07T04:28:38.520Z,8.10
2022-09-07T04:29:38.782Z,9.00
2022-09-07T04:30:39.099Z,9.50
2022-09-07T04:31:39.301Z,10.00
2022-09-07T04:32:39.558Z,9.50
2022-09-07T04:33:39.816Z,9.69
2022-09-07T04:34:40.077Z,9.00
2022-09-07T04:35:40.343Z,9.80
2022-09-07T04:36:40.598Z,9.30
2022-09-07T04:37:40.867Z,9.10
2022-09-07T04:38:41.117Z,9.30
2022-09-07T04:39:41.429Z,9.69
2022-09-07T04:40:41.627Z,9.10
2022-09-07T04:41:41.889Z,9.69
2022-09-07T04:42:42.145Z,9.69
2022-09-07T04:43:42.403Z,9.69
2022-09-07T04:44:42.665Z,10.19
2022-09-07T04:45:42.961Z,11.10
2022-09-07T04:46:43.187Z,11.10
2022-09-07T04:47:43.443Z,11.19
2022-09-07T04:48:43.704Z,12.39
2022-09-07T04:49:43.960Z,12.69
2022-09-07T04:50:44.218Z,12.69
2022-09-07T04:51:44.498Z,12.39
2022-09-07T04:52:44.733Z,12.50
2022-09-07T04:53:44.991Z,13.19
2022-09-07T04:54:45.256Z,12.89
2022-09-07T04:55:45.520Z,12.69
2022-09-07T04:56:45.786Z,13.10
2022-09-07T04:57:46.044Z,13.00
2022-09-07T04:58:46.311Z,12.50
2022-09-07T04:59:46.572Z,13.69
2022-09-07T05:00:46.955Z,12.19
2022-09-07T05:01:47.158Z,12.69
2022-09-07T05:02:47.449Z,11.69
2022-09-07T05:03:47.621Z,11.80
2022-09-07T05:04:47.883Z,13.10
2022-09-07T05:05:48.140Z,13.19
2022-09-07T05:06:48.408Z,13.00
2022-09-07T05:07:48.665Z,14.89
2022-09-07T05:08:48.927Z,14.80
2022-09-07T05:09:49.187Z,14.00
2022-09-07T05:10:49.449Z,13.60
2022-09-07T05:11:49.713Z,14.30
2022-09-07T05:12:49.978Z,14.00
2022-09-07T05:13:50.241Z,14.60
2022-09-07T05:14:50.511Z,15.19
2022-09-07T05:15:50.777Z,15.00
2022-09-07T05:16:51.205Z,15.30
2022-09-07T05:17:51.317Z,14.69
2022-09-07T05:18:51.589Z,15.10
2022-09-07T05:19:51.848Z,14.10
2022-09-07T05:20:52.115Z,14.69
2022-09-07T05:21:52.380Z,14.19
2022-09-07T05:22:52.649Z,13.50
2022-09-07T05:23:52.903Z,13.39
2022-09-07T05:24:53.166Z,15.00
2022-09-07T05:25:53.432Z,16.29
2022-09-07T05:26:53.695Z,16.39
2022-09-07T05:27:53.964Z,17.10
2022-09-07T05:30:04.658Z,16.29
2022-09-07T05:31:55.026Z,16.39
2022-09-07T05:32:55.279Z,15.39
2022-09-07T05:34:55.845Z,17.20
2022-09-07T05:35:56.064Z,17.00
2022-09-07T05:36:56.327Z,16.10
2022-09-07T05:37:56.587Z,15.80
2022-09-07T05:38:56.835Z,15.50
2022-09-07T05:39:57.278Z,15.10
2022-09-07T05:40:57.352Z,15.10
2022-09-07T05:41:57.651Z,15.19
2022-09-07T05:42:57.875Z,16.39
2022-09-07T05:44:58.397Z,15.69
2022-09-07T05:45:58.696Z,16.00
2022-09-07T05:46:58.903Z,16.00
2022-09-07T05:47:59.161Z,14.89
2022-09-07T05:48:59.413Z,13.30
2022-09-07T05:49:59.664Z,13.89
2022-09-07T05:50:59.913Z,15.60
2022-09-07T05:52:00.167Z,15.39
2022-09-07T05:53:00.420Z,14.69
2022-09-07T05:54:00.676Z,13.19
2022-09-07T05:55:19.372Z,13.50
2022-09-07T05:56:05.153Z,12.39
2022-09-07T05:57:01.437Z,12.60
2022-09-07T05:58:01.685Z,11.69
2022-09-07T05:59:01.940Z,11.89
2022-09-07T06:00:02.188Z,12.19
2022-09-07T06:01:02.439Z,11.39
2022-09-07T06:02:02.847Z,10.89
2022-09-07T06:03:03.095Z,11.19
2022-09-07T06:04:03.191Z,10.60
2022-09-07T06:05:03.510Z,10.80
2022-09-07T06:06:03.690Z,11.10
2022-09-07T06:07:21.238Z,11.60
2022-09-07T06:08:05.194Z,11.80
2022-09-07T06:09:04.421Z,11.89
2022-09-07T06:11:04.909Z,10.39
2022-09-07T06:12:05.150Z,10.19
2022-09-07T06:13:05.388Z,10.00
2022-09-07T06:14:05.629Z,11.00
2022-09-07T06:15:05.903Z,10.50
2022-09-07T06:16:06.203Z,9.80
2022-09-07T06:17:06.342Z,9.19
2022-09-07T06:18:06.577Z,9.19
2022-09-07T06:19:06.814Z,8.39
2022-09-07T06:20:07.055Z,8.10
2022-09-07T06:21:07.287Z,8.80
2022-09-07T06:22:07.525Z,9.19
2022-09-07T06:23:07.779Z,8.89
2022-09-07T06:24:07.991Z,9.00
2022-09-07T06:25:08.221Z,8.60
2022-09-07T06:26:08.449Z,8.30
2022-09-07T06:27:08.673Z,8.69
2022-09-07T06:28:08.897Z,6.50
2022-09-07T06:29:09.125Z,6.50
2022-09-07T06:30:09.351Z,7.50
2022-09-07T06:31:09.578Z,7.59
2022-09-07T06:33:10.024Z,7.09
2022-09-07T06:34:10.242Z,7.80
2022-09-07T06:35:10.465Z,6.50
2022-09-07T06:36:10.681Z,7.09
2022-09-07T06:37:10.901Z,5.50
2022-09-07T06:38:11.117Z,4.19
2022-09-07T06:39:11.333Z,4.80
2022-09-07T06:40:11.752Z,4.80
2022-09-07T06:42:11.981Z,5.69
2022-09-07T06:43:12.195Z,5.00
2022-09-07T06:44:12.465Z,4.90
2022-09-07T06:45:12.630Z,5.09
2022-09-07T06:47:13.055Z,4.59
2022-09-07T06:48:13.276Z,4.19
2022-09-07T06:49:13.477Z,4.09
2022-09-07T06:50:13.686Z,4.30
2022-09-07T06:51:13.899Z,4.19
2022-09-07T06:52:14.106Z,3.90
2022-09-07T06:55:14.731Z,4.30
2022-09-07T06:56:14.941Z,4.09
2022-09-07T06:57:15.146Z,4.09
2022-09-07T06:58:15.355Z,4.19
2022-09-07T06:59:15.569Z,4.50
2022-09-07T07:00:15.781Z,5.40
2022-09-07T07:01:16.065Z,5.40
2022-09-07T07:02:16.177Z,6.19
2022-09-07T07:03:16.509Z,6.09
2022-09-07T07:04:16.584Z,5.80
2022-09-07T07:05:16.788Z,5.90
2022-09-07T07:06:16.984Z,6.69
2022-09-07T07:07:17.188Z,4.80
2022-09-07T07:08:17.389Z,5.00
2022-09-07T07:09:17.591Z,4.69
2022-09-07T07:10:22.138Z,5.00
2022-09-07T07:11:19.005Z,4.59
2022-09-07T07:13:47.681Z,5.00
2022-09-07T07:14:47.648Z,5.00
2022-09-07T07:15:47.615Z,5.09
2022-09-07T07:16:47.617Z,4.40
2022-09-07T07:17:53.196Z,4.09
2022-09-07T07:18:48.518Z,3.70
2022-09-07T07:19:47.472Z,4.19
2022-09-07T07:20:47.433Z,3.29
2022-09-07T07:22:47.362Z,3.59
2022-09-07T07:23:47.332Z,4.19
2022-09-07T07:24:47.298Z,3.70
2022-09-07T07:25:47.267Z,4.40
2022-09-07T07:26:47.236Z,4.40
2022-09-07T07:27:47.205Z,4.69
2022-09-07T07:29:03.674Z,4.90
2022-09-07T07:29:48.161Z,5.30
2022-09-07T07:30:47.114Z,5.00
2022-09-07T07:31:47.318Z,4.59
2022-09-07T07:32:47.061Z,5.00
2022-09-07T07:33:47.108Z,5.19
2022-09-07T07:34:46.995Z,5.19
2022-09-07T07:35:46.964Z,5.09
2022-09-07T07:36:46.936Z,5.40
2022-09-07T07:37:46.904Z,5.40
2022-09-07T07:39:02.948Z,5.59
2022-09-07T07:40:19.787Z,5.69
2022-09-07T07:41:57.411Z,5.30
2022-09-07T07:42:47.754Z,5.59
2022-09-07T07:43:46.702Z,5.00
2022-09-07T07:44:46.895Z,6.40
2022-09-07T07:46:46.671Z,5.80
2022-09-07T07:47:46.537Z,6.90
2022-09-07T07:48:46.482Z,6.40
2022-09-07T07:49:46.570Z,7.09
2022-09-07T07:50:46.362Z,6.69
2022-09-07T07:53:46.200Z,8.80
2022-09-07T07:54:46.127Z,8.50
2022-09-07T07:55:46.063Z,8.39
2022-09-07T07:56:45.999Z,8.80
2022-09-07T07:57:45.935Z,9.19
2022-09-07T07:58:45.875Z,9.39
2022-09-07T07:59:45.812Z,10.00
2022-09-07T08:00:58.156Z,9.30
2022-09-07T08:01:46.879Z,9.19
2022-09-07T08:02:45.676Z,9.50
2022-09-07T08:03:45.551Z,9.39
2022-09-07T08:04:45.483Z,9.60
2022-09-07T08:05:45.444Z,9.10
2022-09-07T08:06:45.364Z,9.39
2022-09-07T08:07:45.302Z,9.10
2022-09-07T08:08:45.243Z,9.00
2022-09-07T08:09:45.187Z,9.69
2022-09-07T08:10:45.133Z,9.10
2022-09-07T08:11:45.071Z,9.60
2022-09-07T08:12:45.019Z,9.10
2022-09-07T08:13:44.963Z,8.60
2022-09-07T08:14:44.908Z,10.10
2022-09-07T08:15:44.871Z,9.69
2022-09-07T08:16:44.959Z,9.89
2022-09-07T08:17:44.744Z,10.50
2022-09-07T08:18:47.031Z,12.19
2022-09-07T08:19:44.635Z,12.19
2022-09-07T08:20:44.595Z,11.10
2022-09-07T08:21:44.551Z,10.80
2022-09-07T08:22:44.474Z,10.00
2022-09-07T08:23:44.421Z,10.19
2022-09-07T08:24:44.361Z,11.30
2022-09-07T08:25:44.309Z,10.69
2022-09-07T08:26:44.258Z,10.50
2022-09-07T08:27:44.204Z,11.50
2022-09-07T08:28:44.155Z,12.19
2022-09-07T08:29:44.108Z,12.50
2022-09-07T08:30:44.061Z,11.89
2022-09-07T08:31:44.095Z,12.80
2022-09-07T08:32:43.959Z,12.69
2022-09-07T08:33:43.913Z,13.50
2022-09-07T08:34:43.853Z,13.60
2022-09-07T08:35:43.798Z,14.10
2022-09-07T08:36:43.743Z,14.19
2022-09-07T08:37:43.716Z,14.50
2022-09-07T08:38:43.629Z,13.50
2022-09-07T08:39:43.573Z,15.00
2022-09-07T08:40:43.511Z,14.00
2022-09-07T08:41:43.451Z,14.50
2022-09-07T08:42:43.396Z,14.30
2022-09-07T08:43:47.105Z,15.10
2022-09-07T08:44:43.268Z,14.30
2022-09-07T08:45:43.208Z,14.80
2022-09-07T08:46:43.198Z,16.70
2022-09-07T08:47:43.079Z,17.39
2022-09-07T08:48:43.019Z,16.39
2022-09-07T08:49:42.958Z,17.60
2022-09-07T08:50:42.894Z,17.89
2022-09-07T08:51:42.840Z,17.00
2022-09-07T08:52:42.778Z,16.50
2022-09-07T08:53:42.740Z,17.79
2022-09-07T08:54:42.652Z,17.10
2022-09-07T08:55:42.596Z,18.60
2022-09-07T08:57:20.448Z,19.00
2022-09-07T08:57:43.480Z,18.00
2022-09-07T08:58:49.311Z,18.50
2022-09-07T08:59:43.346Z,19.29
2022-09-07T09:00:42.270Z,18.10
2022-09-07T09:01:42.597Z,18.20
2022-09-07T09:02:44.261Z,17.50
2022-09-07T09:05:42.056Z,17.29
2022-09-07T09:06:42.015Z,17.10
2022-09-07T09:07:41.762Z,17.00
2022-09-07T09:08:41.670Z,16.10
2022-09-07T09:09:41.605Z,16.60
2022-09-07T09:10:41.488Z,16.79
2022-09-07T09:11:41.397Z,17.70
2022-09-07T09:12:41.300Z,16.60
2022-09-07T09:13:41.205Z,15.50
2022-09-07T09:14:41.105Z,16.89
2022-09-07T09:15:41.136Z,16.60
2022-09-07T09:16:42.873Z,16.10
2022-09-07T09:17:40.804Z,16.29
2022-09-07T09:18:40.705Z,16.39
2022-09-07T09:19:40.610Z,17.50
2022-09-07T09:20:40.516Z,16.50
2022-09-07T09:21:40.423Z,17.39
2022-09-07T09:22:40.331Z,18.29
2022-09-07T09:23:40.241Z,16.79
2022-09-07T09:24:40.156Z,15.89
2022-09-07T09:25:40.094Z,17.00
2022-09-07T09:26:40.035Z,17.10
2022-09-07T09:27:39.895Z,17.39
2022-09-07T09:28:39.814Z,17.10
2022-09-07T09:29:39.732Z,16.39
2022-09-07T09:30:39.653Z,15.39
2022-09-07T09:31:39.647Z,16.50
2022-09-07T09:32:39.505Z,16.79
2022-09-07T09:33:39.432Z,16.20
2022-09-07T09:34:39.357Z,16.10
2022-09-07T09:35:39.282Z,15.39
2022-09-07T09:36:39.208Z,16.00
2022-09-07T09:37:39.138Z,16.70
2022-09-07T09:38:39.059Z,18.29
2022-09-07T09:39:39.049Z,17.39
2022-09-07T09:40:38.905Z,16.89
2022-09-07T09:41:38.854Z,16.89
2022-09-07T09:42:38.755Z,17.29
2022-09-07T09:43:38.678Z,17.29
2022-09-07T09:44:38.604Z,18.79
2022-09-07T09:46:38.493Z,19.39
2022-09-07T09:47:38.440Z,19.50
2022-09-07T09:48:38.298Z,19.50
2022-09-07T09:49:38.224Z,19.39
2022-09-07T09:52:47.629Z,19.50
2022-09-07T09:53:38.930Z,20.00
2022-09-07T09:54:37.831Z,20.50
2022-09-07T09:55:37.800Z,19.89
2022-09-07T09:56:37.666Z,20.39
2022-09-07T09:57:38.082Z,20.20
2022-09-07T10:01:21.170Z,20.70
2022-09-07T10:04:37.018Z,18.10
2022-09-07T10:05:36.935Z,16.20
2022-09-07T10:06:36.857Z,15.19
2022-09-07T10:07:36.778Z,15.30
2022-09-07T10:08:36.705Z,15.10
2022-09-07T10:09:38.062Z,16.60
2022-09-07T10:10:36.547Z,16.39
2022-09-07T10:12:07.152Z,17.89
2022-09-07T10:12:37.417Z,19.39
2022-09-07T10:13:36.355Z,18.89
2022-09-07T10:14:36.271Z,19.00
2022-09-07T10:15:40.450Z,21.10
2022-09-07T10:16:36.114Z,22.50
2022-09-07T10:17:36.040Z,19.10
2022-09-07T10:18:36.039Z,19.79
2022-09-07T10:19:35.895Z,16.50
2022-09-07T10:20:35.823Z,17.29
2022-09-07T10:21:35.754Z,18.10
2022-09-07T10:22:35.681Z,17.10
2022-09-07T10:23:35.611Z,14.39
2022-09-07T10:24:35.543Z,14.69
2022-09-07T10:25:35.469Z,15.50
2022-09-07T10:26:35.400Z,16.20
2022-09-07T10:27:35.327Z,14.80
2022-09-07T10:29:36.044Z,13.89
2022-09-07T10:30:35.117Z,13.80
2022-09-07T10:31:35.082Z,12.89
2022-09-07T10:32:34.974Z,12.00
2022-09-07T10:33:34.900Z,11.69
2022-09-07T10:34:34.845Z,11.19
2022-09-07T10:35:34.755Z,12.19
2022-09-07T10:36:34.889Z,11.69
2022-09-07T10:37:34.614Z,10.00
2022-09-07T10:38:34.543Z,9.80
2022-09-07T10:39:34.661Z,10.80
2022-09-07T10:40:34.398Z,9.80
2022-09-07T10:41:34.321Z,10.50
2022-09-07T10:42:34.253Z,9.89
2022-09-07T10:43:34.168Z,10.30
2022-09-07T10:44:34.090Z,10.19
2022-09-07T10:45:34.033Z,11.10
2022-09-07T10:47:33.953Z,10.80
2022-09-07T10:48:33.769Z,10.30
2022-09-07T10:49:33.684Z,10.80
2022-09-07T10:50:33.599Z,9.80
2022-09-07T10:51:33.517Z,9.50
2022-09-07T10:52:33.430Z,9.30
2022-09-07T10:53:42.174Z,8.60
2022-09-07T10:54:34.381Z,8.00
2022-09-07T10:55:33.175Z,8.50
2022-09-07T10:56:33.096Z,7.50
2022-09-07T10:57:33.014Z,6.90
2022-09-07T10:59:03.266Z,8.80
2022-09-07T11:00:32.783Z,7.30
2022-09-07T11:01:32.798Z,7.09
2022-09-07T11:02:32.665Z,6.80
2022-09-07T11:03:32.677Z,8.10
2022-09-07T11:04:32.476Z,7.40
2022-09-07T11:05:36.117Z,8.60
2022-09-07T11:06:32.319Z,7.90
2022-09-07T11:07:32.239Z,7.90
2022-09-07T11:08:32.776Z,8.80
2022-09-07T11:09:32.078Z,8.50
2022-09-07T11:10:31.992Z,9.60
2022-09-07T11:12:31.819Z,9.30
2022-09-07T11:13:31.727Z,8.89
2022-09-07T11:14:31.645Z,9.10
2022-09-07T11:15:31.625Z,9.10
2022-09-07T11:17:31.414Z,7.69
2022-09-07T11:18:31.346Z,7.19
2022-09-07T11:19:35.322Z,6.90
2022-09-07T11:20:31.076Z,6.40
2022-09-07T11:21:57.799Z,6.69
2022-09-07T11:22:31.879Z,6.50
2022-09-07T11:23:30.760Z,6.30
2022-09-07T11:24:30.675Z,6.40
2022-09-07T11:25:30.700Z,6.59
2022-09-07T11:26:30.454Z,6.80
2022-09-07T11:27:30.351Z,7.30
2022-09-07T11:28:30.349Z,6.59
2022-09-07T11:29:30.209Z,6.19
2022-09-07T11:30:30.054Z,7.09
2022-09-07T11:31:30.057Z,6.40
2022-09-07T11:32:29.850Z,8.00
2022-09-07T11:33:29.777Z,7.50
2022-09-07T11:34:29.654Z,7.80
2022-09-07T11:35:29.557Z,7.40
2022-09-07T11:36:29.462Z,6.80
2022-09-07T11:37:29.367Z,5.90
2022-09-07T11:38:29.415Z,6.00
2022-09-07T11:39:29.268Z,5.50
2022-09-07T11:40:29.084Z,5.30
2022-09-07T11:41:28.990Z,4.90
2022-09-07T11:42:44.448Z,4.80
2022-09-07T11:43:29.813Z,4.80
2022-09-07T11:44:28.713Z,5.30
2022-09-07T11:45:28.622Z,4.80
2022-09-07T11:46:28.637Z,5.30
2022-09-07T11:47:28.441Z,5.50
2022-09-07T11:48:31.407Z,5.50
2022-09-07T11:49:28.295Z,5.09
2022-09-07T11:50:28.181Z,4.80
2022-09-07T11:51:28.090Z,5.00
2022-09-07T11:52:27.997Z,4.59
2022-09-07T11:53:27.907Z,5.00
2022-09-07T11:54:27.820Z,5.19
2022-09-07T11:55:27.731Z,5.30
2022-09-07T11:56:27.643Z,5.09
2022-09-07T11:57:27.566Z,4.59
2022-09-07T11:58:27.510Z,5.30
2022-09-07T11:59:27.379Z,5.09
2022-09-07T12:00:27.293Z,5.30
2022-09-07T12:01:27.178Z,5.00
2022-09-07T12:02:48.282Z,5.19
2022-09-07T12:03:28.025Z,5.40
2022-09-07T12:04:26.891Z,6.40
2022-09-07T12:05:26.774Z,6.59
2022-09-07T12:06:26.643Z,6.40
2022-09-07T12:07:26.527Z,5.90
2022-09-07T12:08:26.454Z,6.40
2022-09-07T12:09:26.291Z,6.00
2022-09-07T12:10:26.165Z,5.30
2022-09-07T12:11:26.034Z,5.69
2022-09-07T12:12:25.891Z,6.90
2022-09-07T12:13:25.741Z,6.09
2022-09-07T12:14:25.589Z,7.09
2022-09-07T12:15:25.437Z,6.50
2022-09-07T12:16:25.258Z,6.80
2022-09-07T12:17:25.084Z,7.00
2022-09-07T12:18:24.902Z,6.59
2022-09-07T12:19:24.715Z,7.19
2022-09-07T12:20:24.530Z,7.19
2022-09-07T12:21:24.360Z,6.30
2022-09-07T12:22:24.139Z,6.50
2022-09-07T12:23:23.933Z,6.69
2022-09-07T12:24:23.726Z,6.19
2022-09-07T12:25:23.519Z,6.50
2022-09-07T12:26:23.312Z,6.09
2022-09-07T12:27:23.113Z,7.19
2022-09-07T12:28:22.920Z,7.69
2022-09-07T12:29:22.712Z,7.00
2022-09-07T12:30:22.516Z,7.40
2022-09-07T12:31:27.346Z,7.69
2022-09-07T12:33:21.970Z,7.00
2022-09-07T12:34:21.790Z,6.80
2022-09-07T12:35:21.604Z,6.80
2022-09-07T12:36:21.416Z,6.30
2022-09-07T12:37:21.254Z,6.59
2022-09-07T12:38:21.040Z,7.00
2022-09-07T12:39:20.879Z,6.59
2022-09-07T12:40:20.685Z,6.80
2022-09-07T12:41:20.511Z,7.09
2022-09-07T12:42:37.291Z,8.30
2022-09-07T12:43:21.176Z,6.59
2022-09-07T12:44:19.990Z,6.90
2022-09-07T12:45:19.815Z,7.00
2022-09-07T12:46:19.736Z,6.69
2022-09-07T12:47:19.464Z,6.59
2022-09-07T12:48:19.281Z,7.40
2022-09-07T12:49:19.090Z,6.69
2022-09-07T12:50:19.537Z,6.50
2022-09-07T12:51:59.281Z,6.09
2022-09-07T12:52:18.472Z,7.19
2022-09-07T12:53:18.270Z,6.59
2022-09-07T12:54:18.025Z,7.30
2022-09-07T12:55:27.924Z,5.69
2022-09-07T12:56:18.558Z,7.19
2022-09-07T12:57:32.656Z,7.50
2022-09-07T12:58:18.076Z,7.90
2022-09-07T12:59:20.101Z,7.69
2022-09-07T13:00:16.574Z,7.80
2022-09-07T13:01:16.427Z,8.00
2022-09-07T13:02:16.172Z,7.80
2022-09-07T13:04:15.598Z,8.30
2022-09-07T13:05:15.509Z,8.19
2022-09-07T13:06:15.107Z,7.80
2022-09-07T13:07:14.866Z,6.59
2022-09-07T13:08:14.619Z,7.09
2022-09-07T13:09:14.400Z,7.59
2022-09-07T13:10:14.120Z,7.50
2022-09-07T13:11:13.877Z,8.30
2022-09-07T13:12:52.978Z,8.69
2022-09-07T13:13:14.393Z,7.50
2022-09-07T13:14:13.442Z,7.50
2022-09-07T13:15:23.777Z,8.89
2022-09-07T13:16:13.738Z,8.10
2022-09-07T13:17:19.773Z,7.50
2022-09-07T13:18:13.208Z,7.00
2022-09-07T13:19:11.972Z,6.50
2022-09-07T13:20:11.736Z,7.30
2022-09-07T13:21:11.506Z,7.80
2022-09-07T13:22:11.284Z,8.00
2022-09-07T13:23:11.830Z,8.60
2022-09-07T13:25:10.664Z,8.30
2022-09-07T13:26:10.428Z,8.39
2022-09-07T13:27:10.220Z,7.50
2022-09-07T13:28:10.014Z,7.69
2022-09-07T13:29:09.806Z,8.30
2022-09-07T13:30:09.597Z,7.69
2022-09-07T13:31:09.489Z,6.90
2022-09-07T13:32:09.179Z,7.19
2022-09-07T13:33:09.175Z,7.40
2022-09-07T13:34:08.757Z,6.40
2022-09-07T13:35:08.545Z,6.80
2022-09-07T13:36:08.323Z,7.50
2022-09-07T13:37:08.125Z,7.69
2022-09-07T13:38:07.870Z,6.50
2022-09-07T13:39:07.652Z,7.19
2022-09-07T13:40:07.573Z,7.40
2022-09-07T13:41:07.211Z,6.40
2022-09-07T13:42:06.972Z,6.40
2022-09-07T13:43:06.766Z,6.50
2022-09-07T13:44:06.562Z,8.30
2022-09-07T13:45:06.364Z,7.90
2022-09-07T13:46:06.253Z,8.00